ADDS METAR Data INFO
IDs: Format: Raw Decoded Include TAF

Data at: 1509 UTC 11 Dec 2017

KPIE 111453Z 03007KT 10SM CLR 12/ A3031 RMK AO2 SLP263 T0122 50004
KPIE 111353Z 02009KT 10SM CLR 11/01 A3032 RMK AO2 SLP268 T01110011
KPIE 111253Z 04007KT 10SM CLR 09/02 A3032 RMK AO2 SLP266 T00940022
KPIE 111153Z 02010KT 10SM CLR 09/04 A3030 RMK AO2 SLP259 60000 T00940044 10106 20061 53003
KPIE 111053Z 02007KT 10SM CLR 10/04 A3029 RMK AO2 SLP257 T01000044
KPIE 110953Z AUTO 05006KT 10SM CLR 10/06 A3029 RMK AO2 RAE12 SLP257 P0000 T01000061
KPIE 110853Z AUTO 04003KT 5SM -RA BR CLR 07/06 A3029 RMK AO2 RAB46 SLP256 P0000 60000 T00670061 56007
KPIE 110753Z AUTO 00000KT 10SM CLR 07/06 A3029 RMK AO2 SLP256 T00720061
KPIE 110653Z AUTO 21003KT 10SM CLR 07/06 A3030 RMK AO2 SLP258 T00670056
KPIE 110553Z AUTO 00000KT 10SM CLR 07/06 A3031 RMK AO2 RAB36E50 SLP263 P0000 60000 T00670056 10111 20061 58005
KPIE 110453Z AUTO 00000KT 10SM CLR 07/06 A3032 RMK AO2 SLP265 T00720061 401440061
KPIE 110353Z AUTO 00000KT 10SM CLR 08/06 A3032 RMK AO2 SLP268 T00780061
KPIE 110253Z 19003KT 10SM CLR 08/06 A3032 RMK AO2 SLP268 T00780061 50006
KPIE 110153Z 01004KT 10SM CLR 11/06 A3033 RMK AO2 SLP269 T01110056
KPIE 110053Z 02004KT 10SM CLR 11/05 A3031 RMK AO2 SLP264 T01110050
KPIE 102353Z 35007KT 10SM CLR 11/04 A3030 RMK AO2 SLP261 T01060044 10144 20106 53009
KPIE 102253Z 36006KT 10SM CLR 11/04 A3029 RMK AO2 SLP258 T01060039
KPIE 102153Z 33010KT 10SM CLR 12/03 A3028 RMK AO2 SLP255 T01220028
KPIE 102053Z 32014KT 10SM CLR 13/03 A3028 RMK AO2 SLP252 T01280033 56007
KPIE 101953Z 33012KT 10SM CLR 13/04 A3028 RMK AO2 SLP254 T01330039
KPIE 101853Z 32011KT 10SM CLR 14/04 A3029 RMK AO2 SLP255 T01390044
KPIE 101753Z 33010KT 10SM CLR 14/04 A3030 RMK AO2 SLP259 T01440039 10144 20078 58016
KPIE 101653Z 02007KT 10SM CLR 13/03 A3033 RMK AO2 SLP269 T01280033
KPIE 101553Z 04008KT 10SM CLR 12/02 A3034 RMK AO2 SLP273 T01170022
KPIE 101453Z 02008KT 10SM CLR 11/01 A3035 RMK AO2 SLP275 T01060011 51015
KPIE 101353Z 02012KT 10SM CLR 09/01 A3034 RMK AO2 SLP272 T00890006
KPIE 101253Z 03013KT 10SM CLR 08/02 A3032 RMK AO2 SLP266 T00830017
KPIE 101153Z COR 02011G19KT 10SM FEW037 08/02 A3030 RMK AO2 SLP260 70004 T00830017 10122 20083 53019
KPIE 101053Z COR 02013G19KT 10SM BKN037 08/02 A3028 RMK AO2 SLP252 T00830022
KPIE 100953Z AUTO 01013KT 10SM BKN039 09/03 A3025 RMK AO2 SLP243 T00890028
KPIE 100853Z AUTO 02013G20KT 10SM CLR 09/04 A3025 RMK AO2 SLP242 T00890044 53014
KPIE 100753Z AUTO 36011KT 10SM CLR 11/06 A3023 RMK AO2 SLP235 T01060061
KPIE 100653Z AUTO 01006KT 10SM CLR 11/07 A3021 RMK AO2 SLP230 T01060067
KPIE 100553Z AUTO 36011KT 10SM CLR 12/04 A3021 RMK AO2 SLP228 T01220044 10128 20117 51014
KPIE 100453Z AUTO 35009KT 10SM CLR 12/05 A3019 RMK AO2 SLP224 T01170050 401720117
KPIE 100353Z 34011KT 10SM CLR 12/05 A3019 RMK AO2 SLP224 T01220050